createdAt,value
2022-09-06T00:02:19.771Z,15.68
2022-09-06T00:04:46.614Z,15.51
2022-09-06T00:07:13.325Z,15.66
2022-09-06T00:09:40.145Z,15.65
2022-09-06T00:12:07.172Z,15.67
2022-09-06T00:14:33.904Z,15.57
2022-09-06T00:17:01.654Z,15.58
2022-09-06T00:19:28.359Z,15.55
2022-09-06T00:21:55.021Z,15.48
2022-09-06T00:24:21.852Z,15.51
2022-09-06T00:26:48.556Z,15.46
2022-09-06T00:29:15.364Z,15.61
2022-09-06T00:31:42.145Z,15.38
2022-09-06T00:34:08.858Z,15.30
2022-09-06T00:36:35.603Z,15.29
2022-09-06T00:39:03.175Z,15.31
2022-09-06T00:41:29.900Z,15.28
2022-09-06T00:43:57.531Z,14.95
2022-09-06T00:46:27.697Z,15.58
2022-09-06T00:49:05.250Z,15.04
2022-09-06T00:51:34.609Z,15.58
2022-09-06T00:54:06.822Z,15.65
2022-09-06T00:56:35.872Z,15.55
2022-09-06T00:59:02.688Z,15.51
2022-09-06T01:01:29.552Z,15.60
2022-09-06T01:03:56.831Z,15.59
2022-09-06T01:06:30.828Z,15.67
2022-09-06T01:09:12.047Z,15.83
2022-09-06T01:11:50.949Z,15.56
2022-09-06T01:14:29.825Z,15.23
2022-09-06T01:17:04.221Z,15.07
2022-09-06T01:19:54.940Z,15.05
2022-09-06T01:22:39.776Z,15.16
2022-09-06T01:25:28.052Z,15.14
2022-09-06T01:28:32.986Z,14.97
2022-09-06T01:31:10.314Z,14.85
2022-09-06T01:34:06.068Z,14.82
2022-09-06T01:36:54.298Z,14.63
2022-09-06T01:39:31.176Z,14.60
2022-09-06T01:42:00.593Z,14.58
2022-09-06T01:44:30.206Z,14.62
2022-09-06T01:47:14.450Z,14.69
2022-09-06T01:49:59.888Z,14.74
2022-09-06T01:52:36.726Z,14.97
2022-09-06T01:55:32.630Z,14.66
2022-09-06T01:58:11.402Z,14.74
2022-09-06T02:01:00.281Z,14.54
2022-09-06T02:03:40.272Z,14.62
2022-09-06T02:06:13.191Z,14.58
2022-09-06T02:08:48.163Z,14.68
2022-09-06T02:11:16.603Z,14.81
2022-09-06T02:14:13.727Z,14.74
2022-09-06T02:16:45.021Z,14.62
2022-09-06T02:19:50.452Z,14.67
2022-09-06T02:22:22.353Z,14.55
2022-09-06T02:24:52.607Z,14.40
2022-09-06T02:27:19.771Z,14.33
2022-09-06T02:29:46.771Z,14.36
2022-09-06T02:32:26.582Z,14.46
2022-09-06T02:34:55.906Z,14.45
2022-09-06T02:37:26.699Z,14.25
2022-09-06T02:39:56.186Z,14.38
2022-09-06T02:42:24.564Z,14.22
2022-09-06T02:44:51.424Z,14.18
2022-09-06T02:47:18.457Z,14.11
2022-09-06T02:49:45.315Z,14.01
2022-09-06T02:52:12.356Z,13.83
2022-09-06T02:54:39.151Z,13.91
2022-09-06T02:57:05.956Z,14.01
2022-09-06T02:59:32.752Z,13.95
2022-09-06T03:02:00.269Z,13.97
2022-09-06T03:04:27.036Z,13.92
2022-09-06T03:06:53.929Z,14.00
2022-09-06T03:09:20.699Z,14.00
2022-09-06T03:11:47.419Z,14.04
2022-09-06T03:14:16.354Z,13.95
2022-09-06T03:16:43.572Z,13.81
2022-09-06T03:19:10.484Z,13.89
2022-09-06T03:21:37.175Z,13.89
2022-09-06T03:24:04.052Z,13.98
2022-09-06T03:26:30.765Z,14.06
2022-09-06T03:28:57.529Z,14.30
2022-09-06T03:31:24.318Z,14.35
2022-09-06T03:33:51.060Z,14.21
2022-09-06T03:36:18.099Z,14.33
2022-09-06T03:38:44.863Z,14.24
2022-09-06T03:41:11.686Z,14.29
2022-09-06T03:43:38.454Z,14.35
2022-09-06T03:46:05.387Z,14.49
2022-09-06T03:48:32.402Z,14.09
2022-09-06T03:50:59.544Z,14.32
2022-09-06T03:53:28.472Z,14.53
2022-09-06T03:55:58.057Z,14.53
2022-09-06T03:58:28.736Z,14.57
2022-09-06T04:01:07.256Z,14.46
2022-09-06T04:03:35.349Z,14.41
2022-09-06T04:06:02.914Z,14.57
2022-09-06T04:08:30.068Z,14.49
2022-09-06T04:10:58.461Z,14.58
2022-09-06T04:13:27.137Z,14.58
2022-09-06T04:15:54.324Z,14.61
2022-09-06T04:18:22.004Z,14.58
2022-09-06T04:20:50.654Z,14.69
2022-09-06T04:23:18.770Z,14.82
2022-09-06T04:25:47.771Z,14.95
2022-09-06T04:28:15.068Z,14.90
2022-09-06T04:30:42.023Z,14.72
2022-09-06T04:33:08.815Z,15.06
2022-09-06T04:35:35.733Z,15.07
2022-09-06T04:38:03.783Z,15.15
2022-09-06T04:40:30.723Z,15.28
2022-09-06T04:42:57.454Z,15.38
2022-09-06T04:45:25.053Z,15.36
2022-09-06T04:47:51.999Z,15.44
2022-09-06T04:50:18.887Z,15.39
2022-09-06T04:52:45.875Z,15.43
2022-09-06T04:55:12.605Z,15.45
2022-09-06T04:57:43.739Z,15.49
2022-09-06T05:00:13.072Z,15.71
2022-09-06T05:02:39.857Z,15.91
2022-09-06T05:05:07.141Z,15.86
2022-09-06T05:07:34.331Z,16.12
2022-09-06T05:10:01.078Z,16.15
2022-09-06T05:12:27.804Z,16.11
2022-09-06T05:14:54.726Z,16.40
2022-09-06T05:17:21.461Z,16.45
2022-09-06T05:19:48.600Z,16.70
2022-09-06T05:22:15.417Z,16.90
2022-09-06T05:24:42.129Z,17.47
2022-09-06T05:27:09.028Z,17.01
2022-09-06T05:29:35.894Z,17.20
2022-09-06T05:32:03.008Z,17.32
2022-09-06T05:34:29.752Z,17.41
2022-09-06T05:36:56.582Z,17.74
2022-09-06T05:39:24.066Z,17.83
2022-09-06T05:41:50.878Z,18.26
2022-09-06T05:44:17.738Z,18.91
2022-09-06T05:46:45.653Z,18.88
2022-09-06T05:49:13.507Z,18.64
2022-09-06T05:51:41.023Z,18.96
2022-09-06T05:54:10.455Z,18.96
2022-09-06T05:56:37.337Z,19.05
2022-09-06T05:59:04.619Z,19.00
2022-09-06T06:01:31.493Z,18.96
2022-09-06T06:03:59.398Z,19.32
2022-09-06T06:06:28.580Z,19.36
2022-09-06T06:08:56.468Z,19.48
2022-09-06T06:11:24.328Z,19.46
2022-09-06T06:13:51.033Z,19.57
2022-09-06T06:16:19.835Z,20.13
2022-09-06T06:18:51.742Z,20.23
2022-09-06T06:21:33.444Z,20.69
2022-09-06T06:24:02.959Z,20.25
2022-09-06T06:26:32.730Z,20.59
2022-09-06T06:29:02.173Z,20.78
2022-09-06T06:31:31.291Z,20.61
2022-09-06T06:33:58.534Z,20.82
2022-09-06T06:36:27.522Z,21.36
2022-09-06T06:38:55.497Z,21.84
2022-09-06T06:41:25.077Z,22.28
2022-09-06T06:43:53.725Z,21.68
2022-09-06T06:46:21.330Z,21.75
2022-09-06T06:48:52.703Z,22.23
2022-09-06T06:51:23.723Z,22.67
2022-09-06T06:53:50.671Z,22.91
2022-09-06T06:56:20.298Z,23.31
2022-09-06T06:58:48.966Z,23.01
2022-09-06T07:01:17.265Z,23.27
2022-09-06T07:03:44.156Z,22.71
2022-09-06T07:06:11.539Z,23.41
2022-09-06T07:08:39.614Z,23.76
2022-09-06T07:11:08.002Z,24.01
2022-09-06T07:13:35.134Z,24.59
2022-09-06T07:16:20.743Z,24.56
2022-09-06T07:18:51.370Z,24.09
2022-09-06T07:21:41.741Z,24.42
2022-09-06T07:24:09.552Z,24.00
2022-09-06T07:26:39.484Z,23.82
2022-09-06T07:29:07.469Z,24.68
2022-09-06T07:34:22.652Z,23.67
2022-09-06T07:36:53.708Z,23.66
2022-09-06T07:39:20.468Z,23.84
2022-09-06T07:41:47.495Z,24.05
2022-09-06T07:44:14.469Z,24.14
2022-09-06T07:46:41.474Z,24.60
2022-09-06T07:49:08.403Z,24.27
2022-09-06T07:51:35.265Z,23.67
2022-09-06T07:56:48.883Z,24.26
2022-09-06T07:59:15.774Z,24.33
2022-09-06T08:01:42.912Z,24.34
2022-09-06T08:04:12.894Z,24.41
2022-09-06T08:09:37.867Z,24.90
2022-09-06T08:12:07.397Z,24.96
2022-09-06T08:14:35.009Z,24.41
2022-09-06T08:17:02.778Z,24.80
2022-09-06T08:19:29.603Z,24.57
2022-09-06T08:21:56.317Z,24.74
2022-09-06T08:24:23.090Z,25.09
2022-09-06T08:26:49.933Z,24.96
2022-09-06T08:29:16.830Z,25.84
2022-09-06T08:31:45.616Z,25.27
2022-09-06T08:34:12.893Z,25.15
2022-09-06T08:36:39.961Z,25.49
2022-09-06T08:39:09.412Z,24.78
2022-09-06T08:41:54.818Z,24.86
2022-09-06T08:47:23.484Z,26.30
2022-09-06T08:50:01.113Z,25.64
2022-09-06T08:53:13.318Z,25.33
2022-09-06T08:55:53.054Z,26.15
2022-09-06T08:58:41.351Z,25.45
2022-09-06T09:01:14.921Z,25.50
2022-09-06T09:03:43.385Z,25.14
2022-09-06T09:06:10.845Z,26.59
2022-09-06T09:08:59.315Z,25.74
2022-09-06T09:11:26.489Z,26.26
2022-09-06T09:14:04.084Z,25.57
2022-09-06T09:16:31.181Z,25.72
2022-09-06T09:19:01.958Z,26.57
2022-09-06T09:21:33.136Z,26.18
2022-09-06T09:24:20.040Z,26.25
2022-09-06T09:27:11.383Z,26.70
2022-09-06T09:32:57.824Z,26.24
2022-09-06T09:35:31.293Z,26.85
2022-09-06T09:38:11.710Z,26.44
2022-09-06T09:41:00.998Z,26.51
2022-09-06T09:43:33.411Z,26.87
2022-09-06T09:46:24.603Z,26.92
2022-09-06T09:49:09.785Z,27.37
2022-09-06T09:51:40.696Z,27.59
2022-09-06T09:54:12.926Z,28.05
2022-09-06T09:56:52.538Z,27.48
2022-09-06T09:59:37.958Z,27.22
2022-09-06T10:02:27.606Z,27.42
2022-09-06T10:05:03.041Z,27.56
2022-09-06T10:07:33.058Z,26.75
2022-09-06T10:10:07.794Z,27.08
2022-09-06T10:12:38.922Z,27.13
2022-09-06T10:15:08.580Z,27.22
2022-09-06T10:17:38.204Z,27.57
2022-09-06T10:20:12.892Z,27.34
2022-09-06T10:23:12.734Z,27.42
2022-09-06T10:25:49.206Z,27.34
2022-09-06T10:28:29.684Z,26.81
2022-09-06T10:31:27.561Z,27.61
2022-09-06T10:34:17.139Z,26.89
2022-09-06T10:37:08.331Z,27.50
2022-09-06T10:40:19.772Z,28.06
2022-09-06T10:43:00.336Z,27.67
2022-09-06T10:45:48.729Z,27.61
2022-09-06T10:48:21.770Z,27.68
2022-09-06T10:51:18.993Z,27.59
2022-09-06T10:53:53.966Z,27.87
2022-09-06T10:56:59.482Z,28.64
2022-09-06T11:02:36.152Z,27.42
2022-09-06T11:11:06.345Z,27.14
2022-09-06T11:13:33.493Z,27.69
2022-09-06T11:16:07.340Z,27.82
2022-09-06T11:18:41.846Z,27.97
2022-09-06T11:21:20.668Z,28.49
2022-09-06T11:23:52.543Z,29.51
2022-09-06T11:26:29.487Z,28.51
2022-09-06T11:29:18.621Z,28.22
2022-09-06T11:34:41.267Z,27.65
2022-09-06T11:37:22.810Z,28.04
2022-09-06T11:40:28.618Z,28.11
2022-09-06T11:42:55.924Z,28.63
2022-09-06T11:45:43.083Z,28.07
2022-09-06T11:48:26.517Z,27.99
2022-09-06T11:50:59.667Z,27.83
2022-09-06T11:53:28.339Z,28.24
2022-09-06T11:56:01.080Z,28.65
2022-09-06T11:58:45.898Z,29.03
2022-09-06T12:01:12.558Z,28.17
2022-09-06T12:04:05.164Z,27.16
2022-09-06T12:07:03.786Z,27.10
2022-09-06T12:09:44.067Z,26.91
2022-09-06T12:12:16.209Z,27.40
2022-09-06T12:14:48.300Z,27.73
2022-09-06T12:17:15.003Z,28.19
2022-09-06T12:19:44.471Z,27.69
2022-09-06T12:22:31.245Z,26.88
2022-09-06T12:25:02.306Z,27.19
2022-09-06T12:27:33.228Z,26.63
2022-09-06T12:30:05.800Z,26.25
2022-09-06T12:32:37.306Z,26.20
2022-09-06T12:38:01.448Z,26.57
2022-09-06T12:40:32.756Z,25.78
2022-09-06T12:43:00.381Z,25.59
2022-09-06T12:45:27.772Z,25.93
2022-09-06T12:48:10.534Z,26.47
2022-09-06T12:50:38.293Z,26.66
2022-09-06T12:53:26.681Z,26.33
2022-09-06T12:56:05.695Z,25.86
2022-09-06T12:58:33.433Z,25.54
2022-09-06T13:01:30.594Z,25.26
2022-09-06T13:04:08.090Z,25.35
2022-09-06T13:06:42.113Z,26.10
2022-09-06T13:09:14.135Z,26.56
2022-09-06T13:11:46.768Z,26.85
2022-09-06T13:14:19.467Z,26.89
2022-09-06T13:16:50.199Z,26.16
2022-09-06T13:19:16.901Z,25.83
2022-09-06T13:21:47.720Z,26.29
2022-09-06T13:24:26.960Z,26.42
2022-09-06T13:26:54.848Z,26.81
2022-09-06T13:29:31.892Z,27.27
2022-09-06T13:32:01.282Z,27.26
2022-09-06T13:34:33.697Z,26.92
2022-09-06T13:37:04.192Z,26.39
2022-09-06T13:39:35.750Z,26.15
2022-09-06T13:42:11.861Z,25.69
2022-09-06T13:44:39.830Z,25.11
2022-09-06T13:47:06.833Z,25.50
2022-09-06T13:49:34.150Z,25.39
2022-09-06T13:52:03.415Z,25.13
2022-09-06T13:54:31.386Z,25.23
2022-09-06T13:56:58.223Z,25.15
2022-09-06T13:59:25.576Z,25.04
2022-09-06T14:02:04.987Z,25.12
2022-09-06T14:04:32.544Z,24.97
2022-09-06T14:06:59.472Z,25.10
2022-09-06T14:09:26.223Z,24.69
2022-09-06T14:11:53.022Z,24.29
2022-09-06T14:14:20.114Z,24.07
2022-09-06T14:16:47.781Z,24.43
2022-09-06T14:19:15.520Z,24.50
2022-09-06T14:21:42.269Z,24.24
2022-09-06T14:24:09.101Z,24.07
2022-09-06T14:26:37.009Z,24.35
2022-09-06T14:29:04.079Z,24.52
2022-09-06T14:31:32.777Z,24.20
2022-09-06T14:34:01.146Z,24.27
2022-09-06T14:36:30.295Z,24.35
2022-09-06T14:38:58.611Z,24.29
2022-09-06T14:41:25.926Z,23.96
2022-09-06T14:43:55.317Z,24.16
2022-09-06T14:46:24.493Z,24.05
2022-09-06T14:49:17.527Z,23.82
2022-09-06T14:51:46.005Z,23.51
2022-09-06T14:54:13.974Z,23.57
2022-09-06T14:56:42.260Z,23.75
2022-09-06T14:59:09.357Z,23.81
2022-09-06T15:01:38.590Z,23.66
2022-09-06T15:04:07.818Z,23.53
2022-09-06T15:06:37.094Z,23.29
2022-09-06T15:09:06.653Z,23.28
2022-09-06T15:11:52.396Z,23.12
2022-09-06T15:14:27.611Z,23.08
2022-09-06T15:16:58.088Z,23.13
2022-09-06T15:19:27.060Z,22.97
2022-09-06T15:21:55.392Z,23.05
2022-09-06T15:24:22.206Z,23.31
2022-09-06T15:26:49.883Z,23.22
2022-09-06T15:29:17.226Z,23.23
2022-09-06T15:31:48.408Z,23.03
2022-09-06T15:34:15.119Z,22.84
2022-09-06T15:36:42.036Z,22.66
2022-09-06T15:39:09.149Z,22.46
2022-09-06T15:41:39.247Z,22.56
2022-09-06T15:44:12.343Z,22.47
2022-09-06T15:46:41.559Z,22.31
2022-09-06T15:49:09.850Z,22.28
2022-09-06T15:51:38.930Z,22.23
2022-09-06T15:54:07.005Z,22.45
2022-09-06T15:56:33.852Z,22.40
2022-09-06T15:59:00.819Z,22.06
2022-09-06T16:01:27.781Z,22.12
2022-09-06T16:04:03.834Z,21.98
2022-09-06T16:06:43.934Z,22.06
2022-09-06T16:09:17.199Z,22.05
2022-09-06T16:11:44.592Z,22.04
2022-09-06T16:14:13.925Z,22.02
2022-09-06T16:16:43.452Z,22.09
2022-09-06T16:19:12.436Z,22.00
2022-09-06T16:21:41.780Z,22.09
2022-09-06T16:24:11.722Z,21.95
2022-09-06T16:26:44.692Z,22.02
2022-09-06T16:29:13.524Z,21.95
2022-09-06T16:31:40.996Z,21.84
2022-09-06T16:34:12.574Z,21.64
2022-09-06T16:36:39.926Z,21.59
2022-09-06T16:39:07.952Z,21.60
2022-09-06T16:41:45.926Z,21.53
2022-09-06T16:44:18.985Z,21.49
2022-09-06T16:46:47.803Z,21.44
2022-09-06T16:49:17.177Z,21.34
2022-09-06T16:51:44.570Z,21.15
2022-09-06T16:54:11.690Z,21.08
2022-09-06T16:56:39.575Z,21.00
2022-09-06T16:59:08.373Z,21.08
2022-09-06T17:01:37.175Z,21.03
2022-09-06T17:04:05.706Z,20.98
2022-09-06T17:06:38.454Z,20.83
2022-09-06T17:09:05.717Z,20.84
2022-09-06T17:11:59.351Z,20.95
2022-09-06T17:14:50.893Z,20.72
2022-09-06T17:17:24.041Z,20.89
2022-09-06T17:19:50.866Z,20.78
2022-09-06T17:22:17.876Z,20.70
2022-09-06T17:24:44.898Z,20.68
2022-09-06T17:27:11.680Z,20.63
2022-09-06T17:29:40.239Z,20.77
2022-09-06T17:32:10.374Z,20.54
2022-09-06T17:34:41.093Z,20.50
2022-09-06T17:37:07.941Z,20.52
2022-09-06T17:39:34.975Z,20.48
2022-09-06T17:42:02.311Z,20.35
2022-09-06T17:44:29.234Z,20.28
2022-09-06T17:47:11.899Z,20.06
2022-09-06T17:49:39.465Z,19.97
2022-09-06T17:52:06.344Z,19.94
2022-09-06T17:54:33.517Z,19.84
2022-09-06T17:57:00.240Z,19.70
2022-09-06T17:59:30.448Z,19.61
2022-09-06T18:01:58.500Z,19.61
2022-09-06T18:04:25.310Z,19.65
2022-09-06T18:06:52.092Z,19.43
2022-09-06T18:09:18.975Z,19.35
2022-09-06T18:11:46.905Z,19.22
2022-09-06T18:14:17.384Z,19.13
2022-09-06T18:16:49.376Z,19.10
2022-09-06T18:19:18.064Z,19.12
2022-09-06T18:21:45.524Z,18.95
2022-09-06T18:24:14.002Z,18.98
2022-09-06T18:26:41.789Z,19.05
2022-09-06T18:29:13.290Z,18.98
2022-09-06T18:31:41.316Z,19.04
2022-09-06T18:34:09.171Z,18.96
2022-09-06T18:36:38.592Z,18.87
2022-09-06T18:39:05.927Z,18.89
2022-09-06T18:41:52.251Z,18.79
2022-09-06T18:44:19.360Z,18.93
2022-09-06T18:46:46.479Z,18.74
2022-09-06T18:49:15.382Z,18.57
2022-09-06T18:51:43.490Z,18.49
2022-09-06T18:54:11.338Z,18.52
2022-09-06T18:56:38.869Z,18.52
2022-09-06T18:59:06.450Z,18.45
2022-09-06T19:01:35.410Z,18.25
2022-09-06T19:04:04.051Z,18.34
2022-09-06T19:06:33.078Z,18.26
2022-09-06T19:09:05.728Z,18.31
2022-09-06T19:11:33.023Z,18.30
2022-09-06T19:14:00.392Z,18.25
2022-09-06T19:16:29.245Z,18.27
2022-09-06T19:18:57.130Z,18.16
2022-09-06T19:21:25.813Z,18.23
2022-09-06T19:23:59.051Z,18.28
2022-09-06T19:26:29.977Z,18.26
2022-09-06T19:29:00.186Z,18.22
2022-09-06T19:31:30.336Z,18.18
2022-09-06T19:33:58.571Z,18.23
2022-09-06T19:36:28.174Z,18.25
2022-09-06T19:39:04.012Z,18.24
2022-09-06T19:41:34.343Z,18.16
2022-09-06T19:44:01.787Z,18.02
2022-09-06T19:46:28.654Z,17.97
2022-09-06T19:48:58.941Z,18.14
2022-09-06T19:51:26.112Z,18.02
2022-09-06T19:53:57.706Z,18.04
2022-09-06T19:56:27.799Z,18.10
2022-09-06T19:58:56.527Z,17.99
2022-09-06T20:01:25.411Z,18.16
2022-09-06T20:03:52.925Z,18.00
2022-09-06T20:06:19.857Z,17.97
2022-09-06T20:08:50.835Z,17.83
2022-09-06T20:11:18.732Z,17.83
2022-09-06T20:13:45.836Z,17.51
2022-09-06T20:16:13.485Z,17.61
2022-09-06T20:18:40.893Z,17.50
2022-09-06T20:21:08.075Z,17.39
2022-09-06T20:23:35.550Z,17.41
2022-09-06T20:26:02.331Z,17.38
2022-09-06T20:28:29.444Z,17.35
2022-09-06T20:31:08.704Z,17.49
2022-09-06T20:33:36.016Z,17.36
2022-09-06T20:36:06.146Z,17.39
2022-09-06T20:38:35.560Z,17.36
2022-09-06T20:41:08.143Z,17.11
2022-09-06T20:43:36.971Z,17.13
2022-09-06T20:46:05.818Z,16.98
2022-09-06T20:48:33.833Z,17.07
2022-09-06T20:51:03.167Z,16.83
2022-09-06T20:53:31.849Z,16.78
2022-09-06T20:56:04.329Z,16.83
2022-09-06T20:58:31.972Z,16.76
2022-09-06T21:00:59.943Z,16.66
2022-09-06T21:03:27.413Z,16.60
2022-09-06T21:05:54.335Z,16.52
2022-09-06T21:08:21.211Z,16.48
2022-09-06T21:10:48.056Z,16.54
2022-09-06T21:13:14.757Z,16.44
2022-09-06T21:15:41.449Z,16.39
2022-09-06T21:18:09.543Z,16.41
2022-09-06T21:20:36.418Z,16.29
2022-09-06T21:23:03.673Z,16.42
2022-09-06T21:25:30.500Z,16.42
2022-09-06T21:27:57.355Z,16.37
2022-09-06T21:30:24.255Z,16.50
2022-09-06T21:32:54.087Z,16.67
2022-09-06T21:35:21.050Z,16.68
2022-09-06T21:37:47.719Z,16.66
2022-09-06T21:40:14.558Z,16.66
2022-09-06T21:42:41.250Z,16.65
2022-09-06T21:45:08.407Z,16.27
2022-09-06T21:47:35.180Z,16.72
2022-09-06T21:50:01.913Z,16.74
2022-09-06T21:52:32.489Z,16.75
2022-09-06T21:54:59.648Z,16.83
2022-09-06T21:57:26.391Z,16.93
2022-09-06T21:59:53.664Z,16.96
2022-09-06T22:02:21.479Z,16.78
2022-09-06T22:04:49.503Z,16.81
2022-09-06T22:07:21.727Z,16.76
2022-09-06T22:09:56.369Z,16.72
2022-09-06T22:12:23.135Z,16.66
2022-09-06T22:14:49.807Z,16.51
2022-09-06T22:17:16.567Z,16.42
2022-09-06T22:19:46.722Z,16.42
2022-09-06T22:22:14.464Z,16.35
2022-09-06T22:24:41.136Z,16.36
2022-09-06T22:27:08.153Z,16.27
2022-09-06T22:29:34.889Z,16.18
2022-09-06T22:32:01.719Z,16.03
2022-09-06T22:34:28.616Z,16.10
2022-09-06T22:36:55.371Z,16.08
2022-09-06T22:39:22.094Z,16.16
2022-09-06T22:41:48.856Z,16.08
2022-09-06T22:44:15.827Z,16.07
2022-09-06T22:46:42.996Z,16.00
2022-09-06T22:49:09.769Z,16.08
2022-09-06T22:51:36.555Z,16.11
2022-09-06T22:54:04.651Z,16.14
2022-09-06T22:56:32.141Z,16.26
2022-09-06T22:59:00.403Z,16.23
2022-09-06T23:01:27.654Z,16.50
2022-09-06T23:03:54.629Z,16.57
2022-09-06T23:06:22.753Z,16.45
2022-09-06T23:08:49.491Z,16.20
2022-09-06T23:11:18.190Z,16.12
2022-09-06T23:13:47.212Z,15.98
2022-09-06T23:16:17.267Z,15.99
2022-09-06T23:18:44.836Z,15.92
2022-09-06T23:21:14.860Z,15.83
2022-09-06T23:23:42.395Z,15.71
2022-09-06T23:26:12.752Z,15.81
2022-09-06T23:28:40.220Z,15.81
2022-09-06T23:31:09.333Z,15.76
2022-09-06T23:33:37.487Z,15.79
2022-09-06T23:36:10.185Z,15.81
2022-09-06T23:38:38.779Z,15.97
2022-09-06T23:41:06.404Z,15.90
2022-09-06T23:43:33.122Z,16.09
2022-09-06T23:46:00.319Z,16.17
2022-09-06T23:48:27.391Z,16.26
2022-09-06T23:50:54.110Z,15.94
2022-09-06T23:53:20.894Z,15.80
2022-09-06T23:55:47.617Z,15.64
2022-09-06T23:58:14.451Z,15.79
